sensor_id;sensor_type;location;lat;lon;timestamp;P1;durP1;ratioP1;P2;durP2;ratioP2
25731;SDS011;13585;50.864;4.406;2023-05-10T00:00:23;2.70;;;1.73;;
25731;SDS011;13585;50.864;4.406;2023-05-10T00:02:49;3.30;;;1.77;;
25731;SDS011;13585;50.864;4.406;2023-05-10T00:05:15;1.88;;;1.63;;
25731;SDS011;13585;50.864;4.406;2023-05-10T00:07:41;2.38;;;1.52;;
25731;SDS011;13585;50.864;4.406;2023-05-10T00:10:09;2.55;;;1.73;;
25731;SDS011;13585;50.864;4.406;2023-05-10T00:12:35;3.13;;;1.80;;
25731;SDS011;13585;50.864;4.406;2023-05-10T00:15:01;2.22;;;1.75;;
25731;SDS011;13585;50.864;4.406;2023-05-10T00:17:27;2.80;;;1.70;;
25731;SDS011;13585;50.864;4.406;2023-05-10T00:19:53;4.72;;;1.77;;
25731;SDS011;13585;50.864;4.406;2023-05-10T00:22:19;2.65;;;1.83;;
25731;SDS011;13585;50.864;4.406;2023-05-10T00:24:45;1.50;;;1.40;;
25731;SDS011;13585;50.864;4.406;2023-05-10T00:27:10;3.40;;;2.05;;
25731;SDS011;13585;50.864;4.406;2023-05-10T00:29:36;2.35;;;1.38;;
25731;SDS011;13585;50.864;4.406;2023-05-10T00:32:02;2.58;;;1.83;;
25731;SDS011;13585;50.864;4.406;2023-05-10T00:34:27;1.98;;;1.65;;
25731;SDS011;13585;50.864;4.406;2023-05-10T00:36:53;2.05;;;1.50;;
25731;SDS011;13585;50.864;4.406;2023-05-10T00:39:19;2.75;;;2.00;;
25731;SDS011;13585;50.864;4.406;2023-05-10T00:41:44;2.80;;;1.73;;
25731;SDS011;13585;50.864;4.406;2023-05-10T00:44:10;3.28;;;2.10;;
25731;SDS011;13585;50.864;4.406;2023-05-10T00:46:35;3.00;;;1.80;;
25731;SDS011;13585;50.864;4.406;2023-05-10T00:49:01;1.98;;;1.73;;
25731;SDS011;13585;50.864;4.406;2023-05-10T00:51:27;3.17;;;1.83;;
25731;SDS011;13585;50.864;4.406;2023-05-10T00:53:53;2.35;;;1.70;;
25731;SDS011;13585;50.864;4.406;2023-05-10T00:56:20;2.33;;;1.63;;
25731;SDS011;13585;50.864;4.406;2023-05-10T00:58:48;2.33;;;1.60;;
25731;SDS011;13585;50.864;4.406;2023-05-10T01:01:14;3.22;;;1.80;;
25731;SDS011;13585;50.864;4.406;2023-05-10T01:03:39;2.42;;;1.75;;
25731;SDS011;13585;50.864;4.406;2023-05-10T01:06:05;2.35;;;1.80;;
25731;SDS011;13585;50.864;4.406;2023-05-10T01:08:31;3.03;;;2.15;;
25731;SDS011;13585;50.864;4.406;2023-05-10T01:10:57;2.35;;;1.80;;
25731;SDS011;13585;50.864;4.406;2023-05-10T01:13:28;2.25;;;1.90;;
25731;SDS011;13585;50.864;4.406;2023-05-10T01:15:58;4.10;;;2.05;;
25731;SDS011;13585;50.864;4.406;2023-05-10T01:18:26;2.90;;;2.20;;
25731;SDS011;13585;50.864;4.406;2023-05-10T01:21:04;3.03;;;2.03;;
25731;SDS011;13585;50.864;4.406;2023-05-10T01:34:41;2.53;;;2.15;;
25731;SDS011;13585;50.864;4.406;2023-05-10T01:37:09;3.38;;;2.10;;
25731;SDS011;13585;50.864;4.406;2023-05-10T01:42:23;2.70;;;1.88;;
25731;SDS011;13585;50.864;4.406;2023-05-10T01:45:02;2.08;;;1.88;;
25731;SDS011;13585;50.864;4.406;2023-05-10T01:47:42;2.30;;;2.08;;
25731;SDS011;13585;50.864;4.406;2023-05-10T01:50:17;2.30;;;2.00;;
25731;SDS011;13585;50.864;4.406;2023-05-10T01:52:47;3.67;;;2.10;;
25731;SDS011;13585;50.864;4.406;2023-05-10T01:55:20;3.47;;;1.90;;
25731;SDS011;13585;50.864;4.406;2023-05-10T01:57:48;2.28;;;1.90;;
25731;SDS011;13585;50.864;4.406;2023-05-10T02:00:17;3.85;;;2.15;;
25731;SDS011;13585;50.864;4.406;2023-05-10T02:02:45;2.42;;;2.00;;
25731;SDS011;13585;50.864;4.406;2023-05-10T02:05:13;3.10;;;2.35;;
25731;SDS011;13585;50.864;4.406;2023-05-10T02:07:41;2.95;;;2.22;;
25731;SDS011;13585;50.864;4.406;2023-05-10T02:10:08;2.67;;;1.80;;
25731;SDS011;13585;50.864;4.406;2023-05-10T02:12:36;3.58;;;2.20;;
25731;SDS011;13585;50.864;4.406;2023-05-10T02:15:06;3.17;;;1.90;;
25731;SDS011;13585;50.864;4.406;2023-05-10T02:17:32;3.97;;;2.40;;
25731;SDS011;13585;50.864;4.406;2023-05-10T02:20:01;2.80;;;2.30;;
25731;SDS011;13585;50.864;4.406;2023-05-10T02:22:28;2.67;;;2.05;;
25731;SDS011;13585;50.864;4.406;2023-05-10T02:24:55;4.07;;;2.20;;
25731;SDS011;13585;50.864;4.406;2023-05-10T02:27:23;3.33;;;2.15;;
25731;SDS011;13585;50.864;4.406;2023-05-10T02:29:51;3.10;;;2.03;;
25731;SDS011;13585;50.864;4.406;2023-05-10T02:32:17;3.05;;;2.28;;
25731;SDS011;13585;50.864;4.406;2023-05-10T02:34:44;2.47;;;2.05;;
25731;SDS011;13585;50.864;4.406;2023-05-10T02:37:11;2.38;;;2.10;;
25731;SDS011;13585;50.864;4.406;2023-05-10T02:39:39;2.53;;;2.25;;
25731;SDS011;13585;50.864;4.406;2023-05-10T02:42:08;5.10;;;2.33;;
25731;SDS011;13585;50.864;4.406;2023-05-10T02:44:40;3.40;;;2.50;;
25731;SDS011;13585;50.864;4.406;2023-05-10T02:47:08;2.50;;;2.08;;
25731;SDS011;13585;50.864;4.406;2023-05-10T02:49:33;2.92;;;2.30;;
25731;SDS011;13585;50.864;4.406;2023-05-10T02:52:00;2.78;;;2.28;;
25731;SDS011;13585;50.864;4.406;2023-05-10T02:54:30;2.95;;;2.38;;
25731;SDS011;13585;50.864;4.406;2023-05-10T02:57:00;2.83;;;2.20;;
25731;SDS011;13585;50.864;4.406;2023-05-10T02:59:28;2.85;;;2.28;;
25731;SDS011;13585;50.864;4.406;2023-05-10T03:01:54;3.70;;;2.55;;
25731;SDS011;13585;50.864;4.406;2023-05-10T03:04:20;3.08;;;2.40;;
25731;SDS011;13585;50.864;4.406;2023-05-10T03:06:45;3.78;;;2.35;;
25731;SDS011;13585;50.864;4.406;2023-05-10T03:09:11;4.63;;;2.28;;
25731;SDS011;13585;50.864;4.406;2023-05-10T03:11:56;4.15;;;2.40;;
25731;SDS011;13585;50.864;4.406;2023-05-10T03:20:03;3.70;;;2.30;;
25731;SDS011;13585;50.864;4.406;2023-05-10T03:22:34;3.65;;;2.60;;
25731;SDS011;13585;50.864;4.406;2023-05-10T03:25:03;2.92;;;2.25;;
25731;SDS011;13585;50.864;4.406;2023-05-10T03:27:31;3.83;;;2.40;;
25731;SDS011;13585;50.864;4.406;2023-05-10T03:29:58;2.60;;;2.22;;
25731;SDS011;13585;50.864;4.406;2023-05-10T03:32:26;3.90;;;2.40;;
25731;SDS011;13585;50.864;4.406;2023-05-10T03:34:55;3.05;;;2.30;;
25731;SDS011;13585;50.864;4.406;2023-05-10T03:37:20;3.75;;;2.40;;
25731;SDS011;13585;50.864;4.406;2023-05-10T03:39:46;3.47;;;2.60;;
25731;SDS011;13585;50.864;4.406;2023-05-10T03:42:12;3.47;;;2.35;;
25731;SDS011;13585;50.864;4.406;2023-05-10T03:44:38;2.80;;;2.50;;
25731;SDS011;13585;50.864;4.406;2023-05-10T03:47:04;3.30;;;2.60;;
25731;SDS011;13585;50.864;4.406;2023-05-10T03:49:30;2.67;;;2.30;;
25731;SDS011;13585;50.864;4.406;2023-05-10T03:51:55;2.83;;;2.30;;
25731;SDS011;13585;50.864;4.406;2023-05-10T03:54:21;4.22;;;2.58;;
25731;SDS011;13585;50.864;4.406;2023-05-10T03:56:47;3.22;;;2.78;;
25731;SDS011;13585;50.864;4.406;2023-05-10T03:59:13;3.50;;;2.70;;
25731;SDS011;13585;50.864;4.406;2023-05-10T04:01:38;3.17;;;2.53;;
25731;SDS011;13585;50.864;4.406;2023-05-10T04:04:04;3.40;;;2.67;;
25731;SDS011;13585;50.864;4.406;2023-05-10T04:06:30;2.70;;;2.50;;
25731;SDS011;13585;50.864;4.406;2023-05-10T04:08:55;3.05;;;2.70;;
25731;SDS011;13585;50.864;4.406;2023-05-10T04:11:24;3.78;;;2.70;;
25731;SDS011;13585;50.864;4.406;2023-05-10T04:13:50;2.97;;;2.65;;
25731;SDS011;13585;50.864;4.406;2023-05-10T04:16:16;4.25;;;2.80;;
25731;SDS011;13585;50.864;4.406;2023-05-10T04:18:41;4.45;;;2.90;;
25731;SDS011;13585;50.864;4.406;2023-05-10T04:21:13;4.05;;;2.92;;
25731;SDS011;13585;50.864;4.406;2023-05-10T04:23:39;3.25;;;2.60;;
25731;SDS011;13585;50.864;4.406;2023-05-10T04:26:05;3.40;;;2.63;;
25731;SDS011;13585;50.864;4.406;2023-05-10T04:28:31;4.35;;;2.78;;
25731;SDS011;13585;50.864;4.406;2023-05-10T04:31:06;3.28;;;2.67;;
25731;SDS011;13585;50.864;4.406;2023-05-10T04:33:33;3.63;;;2.70;;
25731;SDS011;13585;50.864;4.406;2023-05-10T04:35:59;3.72;;;2.90;;
25731;SDS011;13585;50.864;4.406;2023-05-10T04:38:25;3.72;;;3.17;;
25731;SDS011;13585;50.864;4.406;2023-05-10T04:40:51;5.47;;;3.20;;
25731;SDS011;13585;50.864;4.406;2023-05-10T04:43:17;4.53;;;3.22;;
25731;SDS011;13585;50.864;4.406;2023-05-10T04:45:43;4.20;;;2.90;;
25731;SDS011;13585;50.864;4.406;2023-05-10T04:48:09;3.78;;;3.10;;
25731;SDS011;13585;50.864;4.406;2023-05-10T04:50:34;4.05;;;3.03;;
25731;SDS011;13585;50.864;4.406;2023-05-10T04:53:00;4.18;;;2.97;;
25731;SDS011;13585;50.864;4.406;2023-05-10T04:55:26;3.75;;;2.80;;
25731;SDS011;13585;50.864;4.406;2023-05-10T04:57:52;3.90;;;2.90;;
25731;SDS011;13585;50.864;4.406;2023-05-10T05:00:18;3.83;;;3.03;;
25731;SDS011;13585;50.864;4.406;2023-05-10T05:02:44;4.82;;;3.10;;
25731;SDS011;13585;50.864;4.406;2023-05-10T05:05:10;4.82;;;3.10;;
25731;SDS011;13585;50.864;4.406;2023-05-10T05:07:36;4.93;;;3.05;;
25731;SDS011;13585;50.864;4.406;2023-05-10T05:10:03;3.30;;;2.90;;
25731;SDS011;13585;50.864;4.406;2023-05-10T05:12:33;4.13;;;3.40;;
25731;SDS011;13585;50.864;4.406;2023-05-10T05:14:59;5.13;;;3.50;;
25731;SDS011;13585;50.864;4.406;2023-05-10T05:17:25;5.65;;;3.47;;
25731;SDS011;13585;50.864;4.406;2023-05-10T05:19:51;4.50;;;3.10;;
25731;SDS011;13585;50.864;4.406;2023-05-10T05:22:18;4.75;;;3.08;;
25731;SDS011;13585;50.864;4.406;2023-05-10T05:24:52;4.07;;;2.97;;
25731;SDS011;13585;50.864;4.406;2023-05-10T05:27:20;3.83;;;3.00;;
25731;SDS011;13585;50.864;4.406;2023-05-10T05:29:49;5.55;;;3.00;;
25731;SDS011;13585;50.864;4.406;2023-05-10T05:32:15;5.38;;;3.38;;
25731;SDS011;13585;50.864;4.406;2023-05-10T05:34:41;4.82;;;3.40;;
25731;SDS011;13585;50.864;4.406;2023-05-10T05:37:06;3.80;;;3.28;;
25731;SDS011;13585;50.864;4.406;2023-05-10T05:39:32;4.47;;;3.33;;
25731;SDS011;13585;50.864;4.406;2023-05-10T05:41:57;4.68;;;3.20;;
25731;SDS011;13585;50.864;4.406;2023-05-10T05:44:23;6.57;;;3.30;;
25731;SDS011;13585;50.864;4.406;2023-05-10T05:46:48;3.55;;;3.10;;
25731;SDS011;13585;50.864;4.406;2023-05-10T05:49:14;4.60;;;3.47;;
25731;SDS011;13585;50.864;4.406;2023-05-10T05:51:40;3.60;;;3.10;;
25731;SDS011;13585;50.864;4.406;2023-05-10T05:54:05;4.13;;;3.53;;
25731;SDS011;13585;50.864;4.406;2023-05-10T05:56:31;4.18;;;3.13;;
25731;SDS011;13585;50.864;4.406;2023-05-10T05:58:57;5.20;;;3.70;;
25731;SDS011;13585;50.864;4.406;2023-05-10T06:01:22;5.45;;;3.83;;
25731;SDS011;13585;50.864;4.406;2023-05-10T06:03:48;5.20;;;3.75;;
25731;SDS011;13585;50.864;4.406;2023-05-10T06:06:13;5.30;;;3.90;;
25731;SDS011;13585;50.864;4.406;2023-05-10T06:08:39;7.13;;;4.13;;
25731;SDS011;13585;50.864;4.406;2023-05-10T06:11:05;7.25;;;4.15;;
25731;SDS011;13585;50.864;4.406;2023-05-10T06:13:30;6.78;;;4.03;;
25731;SDS011;13585;50.864;4.406;2023-05-10T06:15:57;5.93;;;3.50;;
25731;SDS011;13585;50.864;4.406;2023-05-10T06:18:23;5.78;;;3.50;;
25731;SDS011;13585;50.864;4.406;2023-05-10T06:20:50;4.15;;;3.30;;
25731;SDS011;13585;50.864;4.406;2023-05-10T06:23:16;5.13;;;3.53;;
25731;SDS011;13585;50.864;4.406;2023-05-10T06:25:42;4.35;;;3.70;;
25731;SDS011;13585;50.864;4.406;2023-05-10T06:28:07;4.53;;;3.30;;
25731;SDS011;13585;50.864;4.406;2023-05-10T06:30:33;4.60;;;3.67;;
25731;SDS011;13585;50.864;4.406;2023-05-10T06:33:00;4.57;;;3.13;;
25731;SDS011;13585;50.864;4.406;2023-05-10T06:35:26;5.65;;;3.60;;
25731;SDS011;13585;50.864;4.406;2023-05-10T06:37:51;4.13;;;2.88;;
25731;SDS011;13585;50.864;4.406;2023-05-10T06:40:17;6.25;;;3.58;;
25731;SDS011;13585;50.864;4.406;2023-05-10T06:42:43;4.30;;;3.38;;
25731;SDS011;13585;50.864;4.406;2023-05-10T06:45:10;5.15;;;3.75;;
25731;SDS011;13585;50.864;4.406;2023-05-10T06:47:36;5.45;;;3.58;;
25731;SDS011;13585;50.864;4.406;2023-05-10T06:50:01;4.20;;;3.30;;
25731;SDS011;13585;50.864;4.406;2023-05-10T06:52:28;4.00;;;2.97;;
25731;SDS011;13585;50.864;4.406;2023-05-10T06:54:53;5.40;;;2.78;;
25731;SDS011;13585;50.864;4.406;2023-05-10T06:57:19;4.57;;;2.97;;
25731;SDS011;13585;50.864;4.406;2023-05-10T06:59:45;5.45;;;3.25;;
25731;SDS011;13585;50.864;4.406;2023-05-10T07:02:11;5.10;;;2.90;;
25731;SDS011;13585;50.864;4.406;2023-05-10T07:04:37;4.03;;;3.00;;
25731;SDS011;13585;50.864;4.406;2023-05-10T07:07:02;3.63;;;2.83;;
25731;SDS011;13585;50.864;4.406;2023-05-10T07:09:28;3.53;;;2.75;;
25731;SDS011;13585;50.864;4.406;2023-05-10T07:11:53;4.60;;;2.92;;
25731;SDS011;13585;50.864;4.406;2023-05-10T07:14:19;2.72;;;2.10;;
25731;SDS011;13585;50.864;4.406;2023-05-10T07:16:45;4.25;;;2.55;;
25731;SDS011;13585;50.864;4.406;2023-05-10T07:19:10;4.00;;;2.60;;
25731;SDS011;13585;50.864;4.406;2023-05-10T07:21:36;3.13;;;2.40;;
25731;SDS011;13585;50.864;4.406;2023-05-10T07:24:02;4.47;;;2.40;;
25731;SDS011;13585;50.864;4.406;2023-05-10T07:26:27;4.13;;;2.35;;
25731;SDS011;13585;50.864;4.406;2023-05-10T07:28:53;4.18;;;2.75;;
25731;SDS011;13585;50.864;4.406;2023-05-10T07:31:19;4.18;;;2.97;;
25731;SDS011;13585;50.864;4.406;2023-05-10T07:33:45;3.83;;;2.63;;
25731;SDS011;13585;50.864;4.406;2023-05-10T07:36:11;3.40;;;2.40;;
25731;SDS011;13585;50.864;4.406;2023-05-10T07:38:36;3.70;;;2.30;;
25731;SDS011;13585;50.864;4.406;2023-05-10T07:41:02;3.15;;;2.40;;
25731;SDS011;13585;50.864;4.406;2023-05-10T07:43:28;4.32;;;2.50;;
25731;SDS011;13585;50.864;4.406;2023-05-10T07:45:53;4.20;;;2.47;;
25731;SDS011;13585;50.864;4.406;2023-05-10T07:48:19;4.00;;;2.58;;
25731;SDS011;13585;50.864;4.406;2023-05-10T07:50:44;4.50;;;2.42;;
25731;SDS011;13585;50.864;4.406;2023-05-10T07:53:10;3.38;;;2.22;;
25731;SDS011;13585;50.864;4.406;2023-05-10T07:55:35;4.95;;;2.60;;
25731;SDS011;13585;50.864;4.406;2023-05-10T07:58:01;3.20;;;2.45;;
25731;SDS011;13585;50.864;4.406;2023-05-10T08:00:27;4.28;;;2.13;;
25731;SDS011;13585;50.864;4.406;2023-05-10T08:02:52;3.70;;;2.65;;
25731;SDS011;13585;50.864;4.406;2023-05-10T08:05:18;5.97;;;2.80;;
25731;SDS011;13585;50.864;4.406;2023-05-10T08:07:44;4.10;;;2.30;;
25731;SDS011;13585;50.864;4.406;2023-05-10T08:10:09;3.60;;;2.40;;
25731;SDS011;13585;50.864;4.406;2023-05-10T08:12:38;3.58;;;2.30;;
25731;SDS011;13585;50.864;4.406;2023-05-10T08:15:03;3.90;;;2.50;;
25731;SDS011;13585;50.864;4.406;2023-05-10T08:17:29;3.22;;;2.40;;
25731;SDS011;13585;50.864;4.406;2023-05-10T08:19:55;3.25;;;2.22;;
25731;SDS011;13585;50.864;4.406;2023-05-10T08:22:21;4.82;;;2.08;;
25731;SDS011;13585;50.864;4.406;2023-05-10T08:24:46;4.93;;;2.78;;
25731;SDS011;13585;50.864;4.406;2023-05-10T08:27:12;3.83;;;2.20;;
25731;SDS011;13585;50.864;4.406;2023-05-10T08:29:37;3.75;;;2.30;;
25731;SDS011;13585;50.864;4.406;2023-05-10T08:32:03;4.03;;;2.58;;
25731;SDS011;13585;50.864;4.406;2023-05-10T08:34:29;3.20;;;2.08;;
25731;SDS011;13585;50.864;4.406;2023-05-10T08:36:56;3.63;;;2.30;;
25731;SDS011;13585;50.864;4.406;2023-05-10T08:39:21;3.28;;;2.05;;
25731;SDS011;13585;50.864;4.406;2023-05-10T08:41:48;3.88;;;2.35;;
25731;SDS011;13585;50.864;4.406;2023-05-10T08:44:17;3.75;;;2.25;;
25731;SDS011;13585;50.864;4.406;2023-05-10T08:46:45;3.88;;;2.13;;
25731;SDS011;13585;50.864;4.406;2023-05-10T08:49:16;3.38;;;2.08;;
25731;SDS011;13585;50.864;4.406;2023-05-10T08:51:48;4.93;;;2.28;;
25731;SDS011;13585;50.864;4.406;2023-05-10T08:54:17;2.75;;;1.92;;
25731;SDS011;13585;50.864;4.406;2023-05-10T08:56:42;4.20;;;2.10;;
25731;SDS011;13585;50.864;4.406;2023-05-10T08:59:08;2.75;;;2.03;;
25731;SDS011;13585;50.864;4.406;2023-05-10T09:01:35;3.85;;;2.30;;
25731;SDS011;13585;50.864;4.406;2023-05-10T09:04:01;2.95;;;2.22;;
25731;SDS011;13585;50.864;4.406;2023-05-10T09:06:27;4.07;;;2.10;;
25731;SDS011;13585;50.864;4.406;2023-05-10T09:08:53;2.53;;;2.00;;
25731;SDS011;13585;50.864;4.406;2023-05-10T09:11:20;2.90;;;2.00;;
25731;SDS011;13585;50.864;4.406;2023-05-10T09:13:47;3.53;;;2.22;;
25731;SDS011;13585;50.864;4.406;2023-05-10T09:16:15;2.50;;;1.92;;
25731;SDS011;13585;50.864;4.406;2023-05-10T09:18:41;2.63;;;2.05;;
25731;SDS011;13585;50.864;4.406;2023-05-10T09:21:06;2.88;;;2.30;;
25731;SDS011;13585;50.864;4.406;2023-05-10T09:23:32;2.92;;;2.10;;
25731;SDS011;13585;50.864;4.406;2023-05-10T09:26:04;3.60;;;2.08;;
25731;SDS011;13585;50.864;4.406;2023-05-10T09:28:34;2.72;;;2.05;;
25731;SDS011;13585;50.864;4.406;2023-05-10T09:31:14;3.67;;;2.05;;
25731;SDS011;13585;50.864;4.406;2023-05-10T09:33:43;2.90;;;2.10;;
25731;SDS011;13585;50.864;4.406;2023-05-10T09:36:10;2.53;;;1.75;;
25731;SDS011;13585;50.864;4.406;2023-05-10T09:38:46;2.70;;;2.08;;
25731;SDS011;13585;50.864;4.406;2023-05-10T09:41:16;3.20;;;2.38;;
25731;SDS011;13585;50.864;4.406;2023-05-10T09:43:46;2.42;;;1.92;;
25731;SDS011;13585;50.864;4.406;2023-05-10T09:46:12;2.63;;;2.05;;
25731;SDS011;13585;50.864;4.406;2023-05-10T09:48:40;4.15;;;2.10;;
25731;SDS011;13585;50.864;4.406;2023-05-10T09:51:16;2.88;;;2.00;;
25731;SDS011;13585;50.864;4.406;2023-05-10T09:53:47;3.50;;;1.98;;
25731;SDS011;13585;50.864;4.406;2023-05-10T09:56:13;3.47;;;2.08;;
25731;SDS011;13585;50.864;4.406;2023-05-10T10:01:31;2.33;;;1.90;;
25731;SDS011;13585;50.864;4.406;2023-05-10T10:03:58;3.28;;;2.03;;
25731;SDS011;13585;50.864;4.406;2023-05-10T10:06:24;2.40;;;1.83;;
25731;SDS011;13585;50.864;4.406;2023-05-10T10:08:50;2.10;;;1.90;;
25731;SDS011;13585;50.864;4.406;2023-05-10T10:11:16;3.80;;;2.00;;
25731;SDS011;13585;50.864;4.406;2023-05-10T10:13:42;2.08;;;1.83;;
25731;SDS011;13585;50.864;4.406;2023-05-10T10:16:08;2.35;;;1.90;;
25731;SDS011;13585;50.864;4.406;2023-05-10T10:18:35;3.03;;;1.92;;
25731;SDS011;13585;50.864;4.406;2023-05-10T10:21:04;2.20;;;1.67;;
25731;SDS011;13585;50.864;4.406;2023-05-10T10:23:31;2.47;;;1.80;;
25731;SDS011;13585;50.864;4.406;2023-05-10T10:25:57;2.13;;;1.67;;
25731;SDS011;13585;50.864;4.406;2023-05-10T10:34:03;3.60;;;1.80;;
25731;SDS011;13585;50.864;4.406;2023-05-10T10:36:32;3.55;;;2.05;;
25731;SDS011;13585;50.864;4.406;2023-05-10T10:39:07;2.47;;;1.73;;
25731;SDS011;13585;50.864;4.406;2023-05-10T10:41:38;3.08;;;1.90;;
25731;SDS011;13585;50.864;4.406;2023-05-10T10:50:02;2.05;;;1.80;;
25731;SDS011;13585;50.864;4.406;2023-05-10T10:52:35;2.63;;;1.70;;
25731;SDS011;13585;50.864;4.406;2023-05-10T10:55:06;2.10;;;1.90;;
25731;SDS011;13585;50.864;4.406;2023-05-10T10:57:42;2.45;;;1.80;;
25731;SDS011;13585;50.864;4.406;2023-05-10T11:03:11;2.53;;;1.67;;
25731;SDS011;13585;50.864;4.406;2023-05-10T11:05:49;1.85;;;1.75;;
25731;SDS011;13585;50.864;4.406;2023-05-10T11:08:26;3.80;;;2.05;;
25731;SDS011;13585;50.864;4.406;2023-05-10T11:13:34;2.25;;;1.48;;
25731;SDS011;13585;50.864;4.406;2023-05-10T11:16:22;2.70;;;1.63;;
25731;SDS011;13585;50.864;4.406;2023-05-10T11:18:58;2.15;;;1.73;;
25731;SDS011;13585;50.864;4.406;2023-05-10T11:21:27;3.90;;;1.70;;
25731;SDS011;13585;50.864;4.406;2023-05-10T11:23:54;2.08;;;1.73;;
25731;SDS011;13585;50.864;4.406;2023-05-10T11:26:22;1.95;;;1.67;;
25731;SDS011;13585;50.864;4.406;2023-05-10T11:29:05;1.98;;;1.73;;
25731;SDS011;13585;50.864;4.406;2023-05-10T11:31:34;1.88;;;1.50;;
25731;SDS011;13585;50.864;4.406;2023-05-10T11:34:00;2.17;;;1.77;;
25731;SDS011;13585;50.864;4.406;2023-05-10T11:36:29;1.63;;;1.50;;
25731;SDS011;13585;50.864;4.406;2023-05-10T11:38:59;2.35;;;1.73;;
25731;SDS011;13585;50.864;4.406;2023-05-10T11:41:25;2.35;;;1.80;;
25731;SDS011;13585;50.864;4.406;2023-05-10T11:43:53;2.33;;;1.73;;
25731;SDS011;13585;50.864;4.406;2023-05-10T11:46:20;3.03;;;1.60;;
25731;SDS011;13585;50.864;4.406;2023-05-10T11:48:49;3.22;;;1.90;;
25731;SDS011;13585;50.864;4.406;2023-05-10T11:51:20;2.47;;;1.90;;
25731;SDS011;13585;50.864;4.406;2023-05-10T11:53:49;1.95;;;1.48;;
25731;SDS011;13585;50.864;4.406;2023-05-10T11:56:19;2.13;;;1.45;;
25731;SDS011;13585;50.864;4.406;2023-05-10T11:58:53;1.98;;;1.67;;
25731;SDS011;13585;50.864;4.406;2023-05-10T12:01:20;2.17;;;1.70;;
25731;SDS011;13585;50.864;4.406;2023-05-10T12:03:47;1.98;;;1.52;;
25731;SDS011;13585;50.864;4.406;2023-05-10T12:06:13;1.83;;;1.70;;
25731;SDS011;13585;50.864;4.406;2023-05-10T12:08:43;1.70;;;1.50;;
25731;SDS011;13585;50.864;4.406;2023-05-10T12:11:11;2.53;;;1.70;;
25731;SDS011;13585;50.864;4.406;2023-05-10T12:13:39;1.50;;;1.38;;
25731;SDS011;13585;50.864;4.406;2023-05-10T12:16:19;1.60;;;1.50;;
25731;SDS011;13585;50.864;4.406;2023-05-10T12:18:49;2.15;;;1.63;;
25731;SDS011;13585;50.864;4.406;2023-05-10T12:21:16;2.05;;;1.55;;
25731;SDS011;13585;50.864;4.406;2023-05-10T12:23:41;1.95;;;1.70;;
25731;SDS011;13585;50.864;4.406;2023-05-10T12:26:10;1.45;;;1.35;;
25731;SDS011;13585;50.864;4.406;2023-05-10T12:28:36;1.88;;;1.52;;
25731;SDS011;13585;50.864;4.406;2023-05-10T12:31:02;1.95;;;1.58;;
25731;SDS011;13585;50.864;4.406;2023-05-10T12:33:43;1.80;;;1.52;;
25731;SDS011;13585;50.864;4.406;2023-05-10T12:36:10;2.17;;;1.60;;
25731;SDS011;13585;50.864;4.406;2023-05-10T12:38:43;2.10;;;1.50;;
25731;SDS011;13585;50.864;4.406;2023-05-10T12:41:13;1.88;;;1.50;;
25731;SDS011;13585;50.864;4.406;2023-05-10T12:43:40;2.80;;;1.60;;
25731;SDS011;13585;50.864;4.406;2023-05-10T12:46:07;2.15;;;1.90;;
25731;SDS011;13585;50.864;4.406;2023-05-10T12:48:34;1.65;;;1.52;;
25731;SDS011;13585;50.864;4.406;2023-05-10T12:51:01;1.77;;;1.65;;
25731;SDS011;13585;50.864;4.406;2023-05-10T12:53:27;2.22;;;1.70;;
25731;SDS011;13585;50.864;4.406;2023-05-10T12:55:53;1.88;;;1.60;;
25731;SDS011;13585;50.864;4.406;2023-05-10T12:58:19;1.55;;;1.45;;
25731;SDS011;13585;50.864;4.406;2023-05-10T13:00:45;3.10;;;1.63;;
25731;SDS011;13585;50.864;4.406;2023-05-10T13:03:11;1.92;;;1.55;;
25731;SDS011;13585;50.864;4.406;2023-05-10T13:05:38;2.30;;;1.70;;
25731;SDS011;13585;50.864;4.406;2023-05-10T13:08:03;2.58;;;1.60;;
25731;SDS011;13585;50.864;4.406;2023-05-10T13:10:29;1.90;;;1.70;;
25731;SDS011;13585;50.864;4.406;2023-05-10T13:12:56;1.85;;;1.50;;
25731;SDS011;13585;50.864;4.406;2023-05-10T13:15:23;1.67;;;1.40;;
25731;SDS011;13585;50.864;4.406;2023-05-10T13:17:48;2.65;;;1.50;;
25731;SDS011;13585;50.864;4.406;2023-05-10T13:20:14;2.13;;;1.60;;
25731;SDS011;13585;50.864;4.406;2023-05-10T13:22:40;1.67;;;1.38;;
25731;SDS011;13585;50.864;4.406;2023-05-10T13:25:08;2.10;;;1.70;;
25731;SDS011;13585;50.864;4.406;2023-05-10T13:27:34;2.40;;;1.83;;
25731;SDS011;13585;50.864;4.406;2023-05-10T13:29:59;1.75;;;1.58;;
25731;SDS011;13585;50.864;4.406;2023-05-10T13:32:28;1.73;;;1.42;;
25731;SDS011;13585;50.864;4.406;2023-05-10T13:34:54;1.90;;;1.52;;
25731;SDS011;13585;50.864;4.406;2023-05-10T13:37:20;1.65;;;1.30;;
25731;SDS011;13585;50.864;4.406;2023-05-10T13:39:46;1.90;;;1.40;;
25731;SDS011;13585;50.864;4.406;2023-05-10T13:42:12;2.33;;;1.40;;
25731;SDS011;13585;50.864;4.406;2023-05-10T13:44:37;1.60;;;1.50;;
25731;SDS011;13585;50.864;4.406;2023-05-10T13:47:03;1.65;;;1.55;;
25731;SDS011;13585;50.864;4.406;2023-05-10T13:49:29;2.63;;;1.65;;
25731;SDS011;13585;50.864;4.406;2023-05-10T13:51:55;1.77;;;1.63;;
25731;SDS011;13585;50.864;4.406;2023-05-10T13:54:21;1.60;;;1.50;;
25731;SDS011;13585;50.864;4.406;2023-05-10T13:56:47;2.65;;;1.80;;
25731;SDS011;13585;50.864;4.406;2023-05-10T13:59:13;2.28;;;1.65;;
25731;SDS011;13585;50.864;4.406;2023-05-10T14:01:39;1.73;;;1.52;;
25731;SDS011;13585;50.864;4.406;2023-05-10T14:04:06;1.50;;;1.27;;
25731;SDS011;13585;50.864;4.406;2023-05-10T14:06:35;2.10;;;1.40;;
25731;SDS011;13585;50.864;4.406;2023-05-10T14:09:01;1.80;;;1.50;;
25731;SDS011;13585;50.864;4.406;2023-05-10T14:11:27;2.00;;;1.30;;
25731;SDS011;13585;50.864;4.406;2023-05-10T14:13:53;1.83;;;1.60;;
25731;SDS011;13585;50.864;4.406;2023-05-10T14:16:19;1.85;;;1.65;;
25731;SDS011;13585;50.864;4.406;2023-05-10T14:18:45;1.63;;;1.38;;
25731;SDS011;13585;50.864;4.406;2023-05-10T14:21:11;2.22;;;1.48;;
25731;SDS011;13585;50.864;4.406;2023-05-10T14:23:36;2.00;;;1.70;;
25731;SDS011;13585;50.864;4.406;2023-05-10T14:26:02;2.50;;;1.70;;
25731;SDS011;13585;50.864;4.406;2023-05-10T14:28:28;2.15;;;1.50;;
25731;SDS011;13585;50.864;4.406;2023-05-10T14:30:53;1.40;;;1.30;;
25731;SDS011;13585;50.864;4.406;2023-05-10T14:33:19;1.70;;;1.60;;
25731;SDS011;13585;50.864;4.406;2023-05-10T14:35:45;1.80;;;1.70;;
25731;SDS011;13585;50.864;4.406;2023-05-10T14:38:12;2.15;;;1.60;;
25731;SDS011;13585;50.864;4.406;2023-05-10T14:40:38;1.88;;;1.50;;
25731;SDS011;13585;50.864;4.406;2023-05-10T14:43:03;3.25;;;1.80;;
25731;SDS011;13585;50.864;4.406;2023-05-10T14:45:29;4.43;;;1.70;;
25731;SDS011;13585;50.864;4.406;2023-05-10T14:47:57;2.13;;;1.80;;
25731;SDS011;13585;50.864;4.406;2023-05-10T14:50:23;2.53;;;1.70;;
25731;SDS011;13585;50.864;4.406;2023-05-10T14:52:48;2.75;;;1.83;;
25731;SDS011;13585;50.864;4.406;2023-05-10T14:55:15;3.08;;;1.60;;
25731;SDS011;13585;50.864;4.406;2023-05-10T14:57:40;3.10;;;1.80;;
25731;SDS011;13585;50.864;4.406;2023-05-10T15:00:06;2.53;;;1.65;;
25731;SDS011;13585;50.864;4.406;2023-05-10T15:02:32;2.65;;;1.80;;
25731;SDS011;13585;50.864;4.406;2023-05-10T15:04:58;4.57;;;1.90;;
25731;SDS011;13585;50.864;4.406;2023-05-10T15:07:24;3.83;;;1.77;;
25731;SDS011;13585;50.864;4.406;2023-05-10T15:09:50;2.25;;;1.70;;
25731;SDS011;13585;50.864;4.406;2023-05-10T15:12:16;2.75;;;1.98;;
25731;SDS011;13585;50.864;4.406;2023-05-10T15:14:42;2.72;;;1.98;;
25731;SDS011;13585;50.864;4.406;2023-05-10T15:17:08;2.05;;;1.85;;
25731;SDS011;13585;50.864;4.406;2023-05-10T15:19:35;2.00;;;1.80;;
25731;SDS011;13585;50.864;4.406;2023-05-10T15:22:00;4.15;;;2.20;;
25731;SDS011;13585;50.864;4.406;2023-05-10T15:24:27;3.25;;;1.90;;
25731;SDS011;13585;50.864;4.406;2023-05-10T15:26:53;2.20;;;1.88;;